sensor_id;sensor_type;location;lat;lon;timestamp;P1;durP1;ratioP1;P2;durP2;ratioP2
40176;SDS011;31511;46.176;9.874;2022-11-09T00:01:28;7.15;;;4.53;;
40176;SDS011;31511;46.176;9.874;2022-11-09T00:03:55;6.38;;;3.58;;
40176;SDS011;31511;46.176;9.874;2022-11-09T00:06:23;6.15;;;4.13;;
40176;SDS011;31511;46.176;9.874;2022-11-09T00:08:51;8.07;;;3.75;;
40176;SDS011;31511;46.176;9.874;2022-11-09T00:11:19;7.13;;;4.45;;
40176;SDS011;31511;46.176;9.874;2022-11-09T00:13:47;5.05;;;2.85;;
40176;SDS011;31511;46.176;9.874;2022-11-09T00:16:14;4.45;;;3.25;;
40176;SDS011;31511;46.176;9.874;2022-11-09T00:18:41;8.75;;;3.85;;
40176;SDS011;31511;46.176;9.874;2022-11-09T00:21:17;5.35;;;3.45;;
40176;SDS011;31511;46.176;9.874;2022-11-09T00:26:12;7.38;;;4.53;;
40176;SDS011;31511;46.176;9.874;2022-11-09T00:28:40;5.05;;;3.45;;
40176;SDS011;31511;46.176;9.874;2022-11-09T00:31:07;6.30;;;3.38;;
40176;SDS011;31511;46.176;9.874;2022-11-09T00:33:34;5.60;;;3.63;;
40176;SDS011;31511;46.176;9.874;2022-11-09T00:36:04;8.25;;;3.35;;
40176;SDS011;31511;46.176;9.874;2022-11-09T00:38:33;5.15;;;3.60;;
40176;SDS011;31511;46.176;9.874;2022-11-09T00:41:00;8.50;;;4.47;;
40176;SDS011;31511;46.176;9.874;2022-11-09T00:43:28;7.22;;;3.67;;
40176;SDS011;31511;46.176;9.874;2022-11-09T00:45:56;7.13;;;4.38;;
40176;SDS011;31511;46.176;9.874;2022-11-09T00:48:23;8.00;;;4.70;;
40176;SDS011;31511;46.176;9.874;2022-11-09T00:50:52;6.50;;;4.70;;
40176;SDS011;31511;46.176;9.874;2022-11-09T00:53:19;6.00;;;3.88;;
40176;SDS011;31511;46.176;9.874;2022-11-09T00:55:53;5.25;;;3.42;;
40176;SDS011;31511;46.176;9.874;2022-11-09T00:58:21;5.35;;;3.00;;
40176;SDS011;31511;46.176;9.874;2022-11-09T01:00:49;5.70;;;3.25;;
40176;SDS011;31511;46.176;9.874;2022-11-09T01:03:15;4.63;;;3.03;;
40176;SDS011;31511;46.176;9.874;2022-11-09T01:05:42;6.35;;;3.70;;
40176;SDS011;31511;46.176;9.874;2022-11-09T01:08:08;6.47;;;3.10;;
40176;SDS011;31511;46.176;9.874;2022-11-09T01:10:38;4.60;;;2.88;;
40176;SDS011;31511;46.176;9.874;2022-11-09T01:13:04;5.15;;;3.33;;
40176;SDS011;31511;46.176;9.874;2022-11-09T01:15:31;4.93;;;2.83;;
40176;SDS011;31511;46.176;9.874;2022-11-09T01:17:57;4.97;;;2.88;;
40176;SDS011;31511;46.176;9.874;2022-11-09T01:20:25;4.15;;;2.97;;
40176;SDS011;31511;46.176;9.874;2022-11-09T01:22:53;6.40;;;3.00;;
40176;SDS011;31511;46.176;9.874;2022-11-09T01:25:20;6.20;;;3.53;;
40176;SDS011;31511;46.176;9.874;2022-11-09T01:27:48;6.07;;;3.35;;
40176;SDS011;31511;46.176;9.874;2022-11-09T01:30:14;4.60;;;3.15;;
40176;SDS011;31511;46.176;9.874;2022-11-09T01:32:40;6.00;;;2.75;;
40176;SDS011;31511;46.176;9.874;2022-11-09T01:35:07;3.80;;;2.80;;
40176;SDS011;31511;46.176;9.874;2022-11-09T01:37:33;3.83;;;2.70;;
40176;SDS011;31511;46.176;9.874;2022-11-09T01:39:59;4.07;;;2.78;;
40176;SDS011;31511;46.176;9.874;2022-11-09T01:42:27;4.97;;;2.72;;
40176;SDS011;31511;46.176;9.874;2022-11-09T01:47:41;4.97;;;3.45;;
40176;SDS011;31511;46.176;9.874;2022-11-09T01:50:07;4.72;;;3.25;;
40176;SDS011;31511;46.176;9.874;2022-11-09T01:52:35;5.22;;;3.40;;
40176;SDS011;31511;46.176;9.874;2022-11-09T01:55:09;4.47;;;2.95;;
40176;SDS011;31511;46.176;9.874;2022-11-09T01:57:38;5.55;;;3.17;;
40176;SDS011;31511;46.176;9.874;2022-11-09T02:00:06;5.68;;;3.53;;
40176;SDS011;31511;46.176;9.874;2022-11-09T02:02:34;4.57;;;2.95;;
40176;SDS011;31511;46.176;9.874;2022-11-09T02:05:02;6.18;;;3.40;;
40176;SDS011;31511;46.176;9.874;2022-11-09T02:07:30;3.90;;;2.92;;
40176;SDS011;31511;46.176;9.874;2022-11-09T02:10:00;4.75;;;2.75;;
40176;SDS011;31511;46.176;9.874;2022-11-09T02:12:30;5.13;;;3.17;;
40176;SDS011;31511;46.176;9.874;2022-11-09T02:14:57;4.60;;;3.10;;
40176;SDS011;31511;46.176;9.874;2022-11-09T02:17:26;4.47;;;2.90;;
40176;SDS011;31511;46.176;9.874;2022-11-09T02:19:57;4.63;;;2.67;;
40176;SDS011;31511;46.176;9.874;2022-11-09T02:22:25;5.45;;;3.10;;
40176;SDS011;31511;46.176;9.874;2022-11-09T02:24:54;4.43;;;3.03;;
40176;SDS011;31511;46.176;9.874;2022-11-09T02:27:22;4.03;;;2.97;;
40176;SDS011;31511;46.176;9.874;2022-11-09T02:29:51;3.60;;;2.45;;
40176;SDS011;31511;46.176;9.874;2022-11-09T02:32:19;6.70;;;3.50;;
40176;SDS011;31511;46.176;9.874;2022-11-09T02:34:47;5.13;;;2.85;;
40176;SDS011;31511;46.176;9.874;2022-11-09T02:37:26;4.38;;;3.20;;
40176;SDS011;31511;46.176;9.874;2022-11-09T02:39:55;4.03;;;2.92;;
40176;SDS011;31511;46.176;9.874;2022-11-09T02:42:24;6.15;;;2.70;;
40176;SDS011;31511;46.176;9.874;2022-11-09T02:44:56;3.97;;;2.67;;
40176;SDS011;31511;46.176;9.874;2022-11-09T02:47:24;4.20;;;2.70;;
40176;SDS011;31511;46.176;9.874;2022-11-09T02:49:53;12.43;;;3.97;;
40176;SDS011;31511;46.176;9.874;2022-11-09T02:52:23;8.38;;;5.13;;
40176;SDS011;31511;46.176;9.874;2022-11-09T02:54:51;9.63;;;5.47;;
40176;SDS011;31511;46.176;9.874;2022-11-09T02:57:17;7.18;;;3.83;;
40176;SDS011;31511;46.176;9.874;2022-11-09T02:59:45;8.13;;;4.40;;
40176;SDS011;31511;46.176;9.874;2022-11-09T03:02:11;5.70;;;3.70;;
40176;SDS011;31511;46.176;9.874;2022-11-09T03:04:38;7.18;;;3.83;;
40176;SDS011;31511;46.176;9.874;2022-11-09T03:07:04;5.28;;;3.47;;
40176;SDS011;31511;46.176;9.874;2022-11-09T03:09:30;6.50;;;3.03;;
40176;SDS011;31511;46.176;9.874;2022-11-09T03:11:56;5.10;;;2.78;;
40176;SDS011;31511;46.176;9.874;2022-11-09T03:14:24;4.22;;;2.72;;
40176;SDS011;31511;46.176;9.874;2022-11-09T03:16:52;3.95;;;2.47;;
40176;SDS011;31511;46.176;9.874;2022-11-09T03:19:18;4.05;;;2.42;;
40176;SDS011;31511;46.176;9.874;2022-11-09T03:21:46;5.18;;;3.47;;
40176;SDS011;31511;46.176;9.874;2022-11-09T03:24:12;6.70;;;4.35;;
40176;SDS011;31511;46.176;9.874;2022-11-09T03:26:39;5.80;;;3.67;;
40176;SDS011;31511;46.176;9.874;2022-11-09T03:29:05;4.65;;;3.22;;
40176;SDS011;31511;46.176;9.874;2022-11-09T03:31:31;5.15;;;2.92;;
40176;SDS011;31511;46.176;9.874;2022-11-09T03:33:57;4.55;;;3.13;;
40176;SDS011;31511;46.176;9.874;2022-11-09T03:36:25;4.90;;;2.40;;
40176;SDS011;31511;46.176;9.874;2022-11-09T03:38:53;2.83;;;2.10;;
40176;SDS011;31511;46.176;9.874;2022-11-09T03:41:19;3.90;;;2.50;;
40176;SDS011;31511;46.176;9.874;2022-11-09T03:43:47;3.03;;;2.38;;
40176;SDS011;31511;46.176;9.874;2022-11-09T03:46:13;6.80;;;2.42;;
40176;SDS011;31511;46.176;9.874;2022-11-09T03:48:40;4.53;;;2.33;;
40176;SDS011;31511;46.176;9.874;2022-11-09T03:51:06;4.63;;;2.45;;
40176;SDS011;31511;46.176;9.874;2022-11-09T03:53:32;2.53;;;2.00;;
40176;SDS011;31511;46.176;9.874;2022-11-09T03:55:58;6.00;;;2.80;;
40176;SDS011;31511;46.176;9.874;2022-11-09T03:58:26;2.60;;;1.67;;
40176;SDS011;31511;46.176;9.874;2022-11-09T04:00:54;5.25;;;1.95;;
40176;SDS011;31511;46.176;9.874;2022-11-09T04:03:21;4.78;;;3.22;;
40176;SDS011;31511;46.176;9.874;2022-11-09T04:05:49;5.20;;;3.15;;
40176;SDS011;31511;46.176;9.874;2022-11-09T04:08:15;6.80;;;4.30;;
40176;SDS011;31511;46.176;9.874;2022-11-09T04:10:42;18.00;;;6.90;;
40176;SDS011;31511;46.176;9.874;2022-11-09T04:13:08;8.02;;;4.38;;
40176;SDS011;31511;46.176;9.874;2022-11-09T04:15:35;7.32;;;4.35;;
40176;SDS011;31511;46.176;9.874;2022-11-09T04:18:02;4.32;;;2.97;;
40176;SDS011;31511;46.176;9.874;2022-11-09T04:20:29;8.93;;;4.80;;
40176;SDS011;31511;46.176;9.874;2022-11-09T04:22:57;7.43;;;5.43;;
40176;SDS011;31511;46.176;9.874;2022-11-09T04:25:25;5.85;;;3.53;;
40176;SDS011;31511;46.176;9.874;2022-11-09T04:27:55;6.93;;;3.78;;
40176;SDS011;31511;46.176;9.874;2022-11-09T04:30:21;7.32;;;4.70;;
40176;SDS011;31511;46.176;9.874;2022-11-09T04:32:48;7.30;;;4.97;;
40176;SDS011;31511;46.176;9.874;2022-11-09T04:35:14;6.88;;;4.60;;
40176;SDS011;31511;46.176;9.874;2022-11-09T04:37:41;9.95;;;4.72;;
40176;SDS011;31511;46.176;9.874;2022-11-09T04:40:07;9.95;;;4.63;;
40176;SDS011;31511;46.176;9.874;2022-11-09T04:42:35;7.82;;;4.10;;
40176;SDS011;31511;46.176;9.874;2022-11-09T04:45:01;7.18;;;3.50;;
40176;SDS011;31511;46.176;9.874;2022-11-09T04:47:28;6.25;;;3.95;;
40176;SDS011;31511;46.176;9.874;2022-11-09T04:49:54;4.43;;;2.65;;
40176;SDS011;31511;46.176;9.874;2022-11-09T04:52:22;6.30;;;3.63;;
40176;SDS011;31511;46.176;9.874;2022-11-09T04:54:50;5.40;;;2.90;;
40176;SDS011;31511;46.176;9.874;2022-11-09T04:57:16;5.53;;;3.00;;
40176;SDS011;31511;46.176;9.874;2022-11-09T04:59:42;5.22;;;3.22;;
40176;SDS011;31511;46.176;9.874;2022-11-09T05:02:08;4.40;;;3.13;;
40176;SDS011;31511;46.176;9.874;2022-11-09T05:04:35;6.05;;;2.65;;
40176;SDS011;31511;46.176;9.874;2022-11-09T05:07:01;6.03;;;3.20;;
40176;SDS011;31511;46.176;9.874;2022-11-09T05:09:29;6.70;;;3.90;;
40176;SDS011;31511;46.176;9.874;2022-11-09T05:11:55;5.63;;;4.20;;
40176;SDS011;31511;46.176;9.874;2022-11-09T05:14:23;8.30;;;4.15;;
40176;SDS011;31511;46.176;9.874;2022-11-09T05:16:51;7.50;;;3.45;;
40176;SDS011;31511;46.176;9.874;2022-11-09T05:19:17;5.60;;;3.85;;
40176;SDS011;31511;46.176;9.874;2022-11-09T05:21:45;6.72;;;3.13;;
40176;SDS011;31511;46.176;9.874;2022-11-09T05:24:11;5.57;;;2.97;;
40176;SDS011;31511;46.176;9.874;2022-11-09T05:26:38;5.00;;;3.28;;
40176;SDS011;31511;46.176;9.874;2022-11-09T05:29:05;4.20;;;2.60;;
40176;SDS011;31511;46.176;9.874;2022-11-09T05:31:32;6.35;;;2.42;;
40176;SDS011;31511;46.176;9.874;2022-11-09T05:33:59;6.90;;;4.60;;
40176;SDS011;31511;46.176;9.874;2022-11-09T05:36:27;7.35;;;4.53;;
40176;SDS011;31511;46.176;9.874;2022-11-09T05:38:55;7.90;;;5.03;;
40176;SDS011;31511;46.176;9.874;2022-11-09T05:41:22;7.32;;;4.38;;
40176;SDS011;31511;46.176;9.874;2022-11-09T05:43:50;6.82;;;4.10;;
40176;SDS011;31511;46.176;9.874;2022-11-09T05:46:17;6.50;;;4.25;;
40176;SDS011;31511;46.176;9.874;2022-11-09T05:48:43;5.20;;;3.00;;
40176;SDS011;31511;46.176;9.874;2022-11-09T05:51:10;5.15;;;3.10;;
40176;SDS011;31511;46.176;9.874;2022-11-09T05:53:37;6.93;;;3.17;;
40176;SDS011;31511;46.176;9.874;2022-11-09T05:56:05;6.35;;;3.33;;
40176;SDS011;31511;46.176;9.874;2022-11-09T05:58:32;4.72;;;3.33;;
40176;SDS011;31511;46.176;9.874;2022-11-09T06:01:13;5.38;;;3.58;;
40176;SDS011;31511;46.176;9.874;2022-11-09T06:03:40;6.80;;;3.58;;
40176;SDS011;31511;46.176;9.874;2022-11-09T06:06:11;6.93;;;3.15;;
40176;SDS011;31511;46.176;9.874;2022-11-09T06:08:39;6.13;;;2.92;;
40176;SDS011;31511;46.176;9.874;2022-11-09T06:11:06;6.43;;;2.75;;
40176;SDS011;31511;46.176;9.874;2022-11-09T06:13:33;6.35;;;4.78;;
40176;SDS011;31511;46.176;9.874;2022-11-09T06:16:00;6.65;;;4.68;;
40176;SDS011;31511;46.176;9.874;2022-11-09T06:18:28;7.13;;;5.13;;
40176;SDS011;31511;46.176;9.874;2022-11-09T06:20:56;7.85;;;4.80;;
40176;SDS011;31511;46.176;9.874;2022-11-09T06:23:23;8.05;;;5.13;;
40176;SDS011;31511;46.176;9.874;2022-11-09T06:25:52;8.25;;;4.53;;
40176;SDS011;31511;46.176;9.874;2022-11-09T06:28:19;7.30;;;4.90;;
40176;SDS011;31511;46.176;9.874;2022-11-09T06:30:46;6.85;;;4.20;;
40176;SDS011;31511;46.176;9.874;2022-11-09T06:33:12;10.25;;;3.90;;
40176;SDS011;31511;46.176;9.874;2022-11-09T06:35:39;7.75;;;4.25;;
40176;SDS011;31511;46.176;9.874;2022-11-09T06:38:05;6.55;;;4.18;;
40176;SDS011;31511;46.176;9.874;2022-11-09T06:40:31;7.30;;;4.13;;
40176;SDS011;31511;46.176;9.874;2022-11-09T06:42:58;5.15;;;3.67;;
40176;SDS011;31511;46.176;9.874;2022-11-09T06:45:26;5.65;;;3.47;;
40176;SDS011;31511;46.176;9.874;2022-11-09T06:47:55;6.60;;;4.20;;
40176;SDS011;31511;46.176;9.874;2022-11-09T06:50:23;4.70;;;3.72;;
40176;SDS011;31511;46.176;9.874;2022-11-09T06:52:59;13.88;;;5.28;;
40176;SDS011;31511;46.176;9.874;2022-11-09T06:55:27;9.05;;;6.10;;
40176;SDS011;31511;46.176;9.874;2022-11-09T06:57:54;12.15;;;5.45;;
40176;SDS011;31511;46.176;9.874;2022-11-09T07:00:21;9.23;;;5.50;;
40176;SDS011;31511;46.176;9.874;2022-11-09T07:02:47;6.30;;;4.50;;
40176;SDS011;31511;46.176;9.874;2022-11-09T07:05:13;12.38;;;4.30;;
40176;SDS011;31511;46.176;9.874;2022-11-09T07:07:40;8.82;;;4.68;;
40176;SDS011;31511;46.176;9.874;2022-11-09T07:10:06;8.15;;;4.40;;
40176;SDS011;31511;46.176;9.874;2022-11-09T07:12:33;4.53;;;3.03;;
40176;SDS011;31511;46.176;9.874;2022-11-09T07:14:59;5.43;;;3.42;;
40176;SDS011;31511;46.176;9.874;2022-11-09T07:17:28;6.80;;;2.80;;
40176;SDS011;31511;46.176;9.874;2022-11-09T07:19:56;8.25;;;3.15;;
40176;SDS011;31511;46.176;9.874;2022-11-09T07:22:23;4.95;;;2.72;;
40176;SDS011;31511;46.176;9.874;2022-11-09T07:24:51;11.90;;;5.40;;
40176;SDS011;31511;46.176;9.874;2022-11-09T07:27:17;13.43;;;7.03;;
40176;SDS011;31511;46.176;9.874;2022-11-09T07:29:45;11.85;;;7.82;;
40176;SDS011;31511;46.176;9.874;2022-11-09T07:32:11;14.75;;;8.95;;
40176;SDS011;31511;46.176;9.874;2022-11-09T07:34:38;13.05;;;8.82;;
40176;SDS011;31511;46.176;9.874;2022-11-09T07:37:05;8.00;;;6.07;;
40176;SDS011;31511;46.176;9.874;2022-11-09T07:39:31;9.77;;;6.13;;
40176;SDS011;31511;46.176;9.874;2022-11-09T07:41:58;10.52;;;7.70;;
40176;SDS011;31511;46.176;9.874;2022-11-09T07:44:25;11.65;;;8.13;;
40176;SDS011;31511;46.176;9.874;2022-11-09T07:46:53;16.83;;;8.27;;
40176;SDS011;31511;46.176;9.874;2022-11-09T07:49:20;11.50;;;7.78;;
40176;SDS011;31511;46.176;9.874;2022-11-09T07:51:48;16.38;;;9.05;;
40176;SDS011;31511;46.176;9.874;2022-11-09T07:54:15;13.07;;;7.90;;
40176;SDS011;31511;46.176;9.874;2022-11-09T07:56:41;12.82;;;7.03;;
40176;SDS011;31511;46.176;9.874;2022-11-09T07:59:07;9.88;;;6.43;;
40176;SDS011;31511;46.176;9.874;2022-11-09T08:01:34;10.48;;;6.57;;
40176;SDS011;31511;46.176;9.874;2022-11-09T08:04:00;8.60;;;5.65;;
40176;SDS011;31511;46.176;9.874;2022-11-09T08:06:28;8.75;;;5.50;;
40176;SDS011;31511;46.176;9.874;2022-11-09T08:08:55;10.45;;;5.95;;
40176;SDS011;31511;46.176;9.874;2022-11-09T08:11:23;11.35;;;7.68;;
40176;SDS011;31511;46.176;9.874;2022-11-09T08:13:51;13.95;;;7.95;;
40176;SDS011;31511;46.176;9.874;2022-11-09T08:16:18;9.30;;;6.35;;
40176;SDS011;31511;46.176;9.874;2022-11-09T08:18:48;11.68;;;6.80;;
40176;SDS011;31511;46.176;9.874;2022-11-09T08:21:14;13.95;;;6.50;;
40176;SDS011;31511;46.176;9.874;2022-11-09T08:23:41;11.07;;;6.20;;
40176;SDS011;31511;46.176;9.874;2022-11-09T08:26:07;11.85;;;6.72;;
40176;SDS011;31511;46.176;9.874;2022-11-09T08:28:34;10.82;;;7.00;;
40176;SDS011;31511;46.176;9.874;2022-11-09T08:31:01;14.77;;;8.02;;
40176;SDS011;31511;46.176;9.874;2022-11-09T08:33:30;12.65;;;7.25;;
40176;SDS011;31511;46.176;9.874;2022-11-09T08:35:57;10.90;;;6.90;;
40176;SDS011;31511;46.176;9.874;2022-11-09T08:38:25;9.45;;;6.13;;
40176;SDS011;31511;46.176;9.874;2022-11-09T08:40:56;17.38;;;7.47;;
40176;SDS011;31511;46.176;9.874;2022-11-09T08:43:24;11.98;;;7.78;;
40176;SDS011;31511;46.176;9.874;2022-11-09T08:45:52;12.70;;;7.65;;
40176;SDS011;31511;46.176;9.874;2022-11-09T08:48:20;12.20;;;7.55;;
40176;SDS011;31511;46.176;9.874;2022-11-09T08:50:54;11.98;;;6.68;;
40176;SDS011;31511;46.176;9.874;2022-11-09T08:53:22;12.77;;;8.38;;
40176;SDS011;31511;46.176;9.874;2022-11-09T08:55:51;11.35;;;7.05;;
40176;SDS011;31511;46.176;9.874;2022-11-09T08:58:18;10.80;;;7.10;;
40176;SDS011;31511;46.176;9.874;2022-11-09T09:00:46;12.35;;;7.30;;
40176;SDS011;31511;46.176;9.874;2022-11-09T09:03:12;11.13;;;6.55;;
40176;SDS011;31511;46.176;9.874;2022-11-09T09:05:39;13.18;;;8.27;;
40176;SDS011;31511;46.176;9.874;2022-11-09T09:08:05;20.35;;;9.38;;
40176;SDS011;31511;46.176;9.874;2022-11-09T09:10:32;17.42;;;8.23;;
40176;SDS011;31511;46.176;9.874;2022-11-09T09:12:59;12.25;;;8.32;;
40176;SDS011;31511;46.176;9.874;2022-11-09T09:15:28;17.77;;;9.38;;
40176;SDS011;31511;46.176;9.874;2022-11-09T09:18:00;12.25;;;8.45;;
40176;SDS011;31511;46.176;9.874;2022-11-09T09:20:30;14.80;;;8.80;;
40176;SDS011;31511;46.176;9.874;2022-11-09T09:22:58;13.20;;;7.88;;
40176;SDS011;31511;46.176;9.874;2022-11-09T09:25:26;15.38;;;9.15;;
40176;SDS011;31511;46.176;9.874;2022-11-09T09:27:57;13.77;;;8.45;;
40176;SDS011;31511;46.176;9.874;2022-11-09T09:30:25;14.75;;;7.40;;
40176;SDS011;31511;46.176;9.874;2022-11-09T09:32:56;26.67;;;14.57;;
40176;SDS011;31511;46.176;9.874;2022-11-09T09:35:23;32.20;;;19.27;;
40176;SDS011;31511;46.176;9.874;2022-11-09T09:37:52;20.90;;;14.32;;
40176;SDS011;31511;46.176;9.874;2022-11-09T09:40:39;20.00;;;10.05;;
40176;SDS011;31511;46.176;9.874;2022-11-09T09:43:13;12.50;;;6.78;;
40176;SDS011;31511;46.176;9.874;2022-11-09T09:45:47;8.40;;;6.88;;
40176;SDS011;31511;46.176;9.874;2022-11-09T09:48:17;7.75;;;6.47;;
40176;SDS011;31511;46.176;9.874;2022-11-09T09:50:49;8.68;;;5.20;;
40176;SDS011;31511;46.176;9.874;2022-11-09T09:55:55;13.85;;;8.65;;
40176;SDS011;31511;46.176;9.874;2022-11-09T09:58:27;24.33;;;11.70;;
40176;SDS011;31511;46.176;9.874;2022-11-09T10:03:39;17.55;;;9.40;;
40176;SDS011;31511;46.176;9.874;2022-11-09T10:17:05;10.00;;;7.45;;
40176;SDS011;31511;46.176;9.874;2022-11-09T10:22:47;14.68;;;6.53;;
40176;SDS011;31511;46.176;9.874;2022-11-09T10:27:21;15.40;;;8.77;;
40176;SDS011;31511;46.176;9.874;2022-11-09T10:29:52;12.02;;;7.35;;
40176;SDS011;31511;46.176;9.874;2022-11-09T10:32:19;18.33;;;10.73;;
40176;SDS011;31511;46.176;9.874;2022-11-09T10:42:26;11.18;;;6.68;;
40176;SDS011;31511;46.176;9.874;2022-11-09T10:44:55;9.45;;;6.05;;
40176;SDS011;31511;46.176;9.874;2022-11-09T10:47:22;9.38;;;6.60;;
40176;SDS011;31511;46.176;9.874;2022-11-09T10:50:13;11.15;;;6.05;;
40176;SDS011;31511;46.176;9.874;2022-11-09T10:52:43;10.05;;;5.95;;
40176;SDS011;31511;46.176;9.874;2022-11-09T10:57:49;8.93;;;5.50;;
40176;SDS011;31511;46.176;9.874;2022-11-09T11:00:16;8.52;;;5.90;;
40176;SDS011;31511;46.176;9.874;2022-11-09T11:02:43;10.38;;;6.82;;
40176;SDS011;31511;46.176;9.874;2022-11-09T11:07:41;9.43;;;5.57;;
40176;SDS011;31511;46.176;9.874;2022-11-09T11:10:16;9.75;;;5.95;;
40176;SDS011;31511;46.176;9.874;2022-11-09T11:12:44;8.68;;;5.65;;
40176;SDS011;31511;46.176;9.874;2022-11-09T11:15:24;12.13;;;7.38;;
40176;SDS011;31511;46.176;9.874;2022-11-09T11:18:00;12.55;;;9.50;;
40176;SDS011;31511;46.176;9.874;2022-11-09T11:20:31;18.47;;;11.63;;
40176;SDS011;31511;46.176;9.874;2022-11-09T11:23:11;17.02;;;9.73;;
40176;SDS011;31511;46.176;9.874;2022-11-09T11:25:50;20.88;;;10.73;;
40176;SDS011;31511;46.176;9.874;2022-11-09T11:30:47;17.60;;;10.00;;
40176;SDS011;31511;46.176;9.874;2022-11-09T11:33:14;17.45;;;11.20;;
40176;SDS011;31511;46.176;9.874;2022-11-09T11:35:44;21.67;;;12.63;;
40176;SDS011;31511;46.176;9.874;2022-11-09T11:38:26;17.45;;;11.25;;
40176;SDS011;31511;46.176;9.874;2022-11-09T11:46:15;19.05;;;12.38;;
40176;SDS011;31511;46.176;9.874;2022-11-09T11:54:13;20.10;;;14.05;;
40176;SDS011;31511;46.176;9.874;2022-11-09T11:56:55;19.17;;;12.65;;
40176;SDS011;31511;46.176;9.874;2022-11-09T12:05:03;18.42;;;13.18;;
40176;SDS011;31511;46.176;9.874;2022-11-09T12:07:49;21.67;;;14.10;;
40176;SDS011;31511;46.176;9.874;2022-11-09T12:10:26;17.83;;;12.32;;
40176;SDS011;31511;46.176;9.874;2022-11-09T12:15:31;19.67;;;12.73;;
40176;SDS011;31511;46.176;9.874;2022-11-09T12:20:37;15.85;;;10.63;;
40176;SDS011;31511;46.176;9.874;2022-11-09T12:25:35;17.92;;;10.70;;
40176;SDS011;31511;46.176;9.874;2022-11-09T12:33:18;14.70;;;10.73;;
40176;SDS011;31511;46.176;9.874;2022-11-09T12:35:55;15.70;;;9.02;;
40176;SDS011;31511;46.176;9.874;2022-11-09T12:38:35;13.27;;;8.73;;
40176;SDS011;31511;46.176;9.874;2022-11-09T12:41:04;14.45;;;8.38;;
40176;SDS011;31511;46.176;9.874;2022-11-09T12:43:35;25.42;;;16.38;;
40176;SDS011;31511;46.176;9.874;2022-11-09T12:46:05;18.13;;;13.35;;
40176;SDS011;31511;46.176;9.874;2022-11-09T12:48:33;20.42;;;14.30;;
40176;SDS011;31511;46.176;9.874;2022-11-09T12:51:00;15.05;;;12.68;;
40176;SDS011;31511;46.176;9.874;2022-11-09T12:53:29;20.27;;;11.75;;
40176;SDS011;31511;46.176;9.874;2022-11-09T12:58:25;17.40;;;12.32;;
40176;SDS011;31511;46.176;9.874;2022-11-09T13:00:57;17.70;;;11.50;;
40176;SDS011;31511;46.176;9.874;2022-11-09T13:03:32;12.00;;;8.63;;
40176;SDS011;31511;46.176;9.874;2022-11-09T13:08:27;17.25;;;10.60;;
40176;SDS011;31511;46.176;9.874;2022-11-09T13:11:17;15.15;;;10.38;;
40176;SDS011;31511;46.176;9.874;2022-11-09T13:13:45;15.50;;;11.18;;
40176;SDS011;31511;46.176;9.874;2022-11-09T13:23:49;10.02;;;7.47;;
40176;SDS011;31511;46.176;9.874;2022-11-09T13:39:59;14.25;;;10.57;;
40176;SDS011;31511;46.176;9.874;2022-11-09T13:42:28;15.95;;;10.60;;
40176;SDS011;31511;46.176;9.874;2022-11-09T13:47:58;16.08;;;9.80;;
40176;SDS011;31511;46.176;9.874;2022-11-09T13:50:26;14.90;;;9.82;;
40176;SDS011;31511;46.176;9.874;2022-11-09T13:52:55;13.43;;;9.75;;
40176;SDS011;31511;46.176;9.874;2022-11-09T13:55:25;23.50;;;9.60;;
40176;SDS011;31511;46.176;9.874;2022-11-09T13:57:54;13.73;;;10.98;;
40176;SDS011;31511;46.176;9.874;2022-11-09T14:00:22;17.45;;;11.13;;
40176;SDS011;31511;46.176;9.874;2022-11-09T14:02:59;19.30;;;12.15;;
40176;SDS011;31511;46.176;9.874;2022-11-09T14:05:33;19.00;;;12.05;;
40176;SDS011;31511;46.176;9.874;2022-11-09T14:08:03;22.10;;;11.85;;
40176;SDS011;31511;46.176;9.874;2022-11-09T14:10:43;20.15;;;12.50;;
40176;SDS011;31511;46.176;9.874;2022-11-09T14:23:29;18.33;;;12.63;;
40176;SDS011;31511;46.176;9.874;2022-11-09T14:25:56;19.70;;;11.57;;
40176;SDS011;31511;46.176;9.874;2022-11-09T14:28:27;17.77;;;12.43;;
40176;SDS011;31511;46.176;9.874;2022-11-09T14:30:55;20.17;;;12.32;;
40176;SDS011;31511;46.176;9.874;2022-11-09T14:33:25;18.35;;;13.07;;
40176;SDS011;31511;46.176;9.874;2022-11-09T14:35:54;20.88;;;15.10;;
40176;SDS011;31511;46.176;9.874;2022-11-09T14:38:31;27.27;;;18.10;;
40176;SDS011;31511;46.176;9.874;2022-11-09T14:40:58;18.08;;;11.90;;
40176;SDS011;31511;46.176;9.874;2022-11-09T14:43:41;18.73;;;13.85;;
40176;SDS011;31511;46.176;9.874;2022-11-09T14:48:35;19.85;;;13.40;;
40176;SDS011;31511;46.176;9.874;2022-11-09T14:51:02;15.90;;;12.35;;
40176;SDS011;31511;46.176;9.874;2022-11-09T14:53:35;16.77;;;11.82;;
40176;SDS011;31511;46.176;9.874;2022-11-09T14:56:05;19.25;;;12.23;;
40176;SDS011;31511;46.176;9.874;2022-11-09T14:58:33;18.35;;;12.48;;
40176;SDS011;31511;46.176;9.874;2022-11-09T15:03:42;20.02;;;12.23;;
40176;SDS011;31511;46.176;9.874;2022-11-09T15:06:09;22.70;;;13.30;;
40176;SDS011;31511;46.176;9.874;2022-11-09T15:08:54;20.98;;;13.15;;
40176;SDS011;31511;46.176;9.874;2022-11-09T15:11:42;15.73;;;12.40;;
40176;SDS011;31511;46.176;9.874;2022-11-09T15:14:14;15.68;;;12.90;;
40176;SDS011;31511;46.176;9.874;2022-11-09T15:16:48;17.17;;;12.38;;
40176;SDS011;31511;46.176;9.874;2022-11-09T15:19:27;20.98;;;13.98;;
40176;SDS011;31511;46.176;9.874;2022-11-09T15:21:56;22.63;;;15.07;;
40176;SDS011;31511;46.176;9.874;2022-11-09T15:24:24;18.15;;;13.27;;
40176;SDS011;31511;46.176;9.874;2022-11-09T15:26:53;15.68;;;12.32;;
40176;SDS011;31511;46.176;9.874;2022-11-09T15:29:26;19.23;;;13.00;;
40176;SDS011;31511;46.176;9.874;2022-11-09T15:32:14;17.90;;;12.27;;
40176;SDS011;31511;46.176;9.874;2022-11-09T15:34:43;17.45;;;12.63;;
40176;SDS011;31511;46.176;9.874;2022-11-09T15:37:21;25.15;;;13.00;;
40176;SDS011;31511;46.176;9.874;2022-11-09T15:39:49;17.83;;;13.18;;
40176;SDS011;31511;46.176;9.874;2022-11-09T15:42:16;24.98;;;13.77;;
40176;SDS011;31511;46.176;9.874;2022-11-09T15:44:42;21.38;;;13.52;;
40176;SDS011;31511;46.176;9.874;2022-11-09T15:47:30;20.90;;;14.43;;
40176;SDS011;31511;46.176;9.874;2022-11-09T15:49:58;14.65;;;12.15;;
40176;SDS011;31511;46.176;9.874;2022-11-09T15:52:25;19.52;;;13.10;;
40176;SDS011;31511;46.176;9.874;2022-11-09T15:54:54;15.70;;;13.23;;
40176;SDS011;31511;46.176;9.874;2022-11-09T15:57:22;19.98;;;12.50;;
40176;SDS011;31511;46.176;9.874;2022-11-09T15:59:50;18.67;;;11.30;;
40176;SDS011;31511;46.176;9.874;2022-11-09T16:02:16;20.45;;;12.85;;
40176;SDS011;31511;46.176;9.874;2022-11-09T16:04:43;18.08;;;12.77;;
40176;SDS011;31511;46.176;9.874;2022-11-09T16:07:12;13.57;;;11.07;;
40176;SDS011;31511;46.176;9.874;2022-11-09T16:09:39;17.45;;;11.95;;
40176;SDS011;31511;46.176;9.874;2022-11-09T16:12:06;14.38;;;11.48;;
40176;SDS011;31511;46.176;9.874;2022-11-09T16:14:33;19.90;;;13.18;;
40176;SDS011;31511;46.176;9.874;2022-11-09T16:16:59;21.80;;;14.27;;
40176;SDS011;31511;46.176;9.874;2022-11-09T16:19:27;19.48;;;15.43;;
40176;SDS011;31511;46.176;9.874;2022-11-09T16:21:54;19.40;;;12.32;;
40176;SDS011;31511;46.176;9.874;2022-11-09T16:24:23;19.35;;;13.63;;
40176;SDS011;31511;46.176;9.874;2022-11-09T16:26:52;14.60;;;10.55;;
40176;SDS011;31511;46.176;9.874;2022-11-09T16:29:18;13.55;;;9.95;;
40176;SDS011;31511;46.176;9.874;2022-11-09T16:31:46;13.25;;;9.50;;
40176;SDS011;31511;46.176;9.874;2022-11-09T16:34:12;17.70;;;12.05;;
40176;SDS011;31511;46.176;9.874;2022-11-09T16:36:40;16.08;;;11.32;;
40176;SDS011;31511;46.176;9.874;2022-11-09T16:39:07;17.45;;;11.57;;
40176;SDS011;31511;46.176;9.874;2022-11-09T16:41:40;16.50;;;13.07;;
40176;SDS011;31511;46.176;9.874;2022-11-09T16:44:07;20.30;;;14.75;;